createdAt,value
2023-11-17T00:04:38.114Z,9.69
2023-11-17T00:09:41.551Z,9.67
2023-11-17T00:14:44.909Z,9.65
2023-11-17T00:19:48.241Z,9.62
2023-11-17T00:24:51.577Z,9.59
2023-11-17T00:29:54.714Z,9.59
2023-11-17T00:34:57.861Z,9.62
2023-11-17T00:40:01.612Z,9.63
2023-11-17T00:45:07.586Z,9.62
2023-11-17T00:50:12.674Z,9.58
2023-11-17T00:55:17.379Z,9.53
2023-11-17T01:00:20.561Z,9.49
2023-11-17T01:05:23.828Z,9.44
2023-11-17T01:10:28.205Z,9.39
2023-11-17T01:15:35.492Z,9.40
2023-11-17T01:20:42.312Z,9.45
2023-11-17T01:25:46.628Z,9.47
2023-11-17T01:30:49.963Z,9.55
2023-11-17T01:35:53.145Z,9.60
2023-11-17T01:40:58.243Z,9.63
2023-11-17T01:46:02.078Z,9.58
2023-11-17T01:51:06.700Z,9.56
2023-11-17T01:56:10.044Z,9.53
2023-11-17T02:01:15.286Z,9.54
2023-11-17T02:06:39.148Z,9.55
2023-11-17T02:11:51.505Z,9.56
2023-11-17T02:16:55.486Z,9.51
2023-11-17T02:22:04.139Z,9.47
2023-11-17T02:28:01.366Z,9.43
2023-11-17T02:33:09.659Z,9.39
2023-11-17T02:38:14.342Z,9.38
2023-11-17T02:43:17.582Z,9.42
2023-11-17T02:48:29.664Z,9.47
2023-11-17T02:53:37.029Z,9.47
2023-11-17T02:58:40.304Z,9.45
2023-11-17T03:03:45.287Z,9.46
2023-11-17T03:08:50.768Z,9.47
2023-11-17T03:13:54.063Z,9.45
2023-11-17T03:18:57.296Z,9.44
2023-11-17T03:24:00.386Z,9.46
2023-11-17T03:29:06.275Z,9.49
2023-11-17T03:34:11.015Z,9.47
2023-11-17T03:39:15.076Z,9.45
2023-11-17T03:44:18.188Z,9.44
2023-11-17T03:49:22.806Z,9.42
2023-11-17T03:54:26.165Z,9.38
2023-11-17T03:59:31.646Z,9.39
2023-11-17T04:04:35.710Z,9.43
2023-11-17T04:09:39.119Z,9.46
2023-11-17T04:14:43.657Z,9.47
2023-11-17T04:19:48.021Z,9.46
2023-11-17T04:24:51.281Z,9.44
2023-11-17T04:29:54.668Z,9.41
2023-11-17T04:34:57.929Z,9.38
2023-11-17T04:40:03.228Z,9.39
2023-11-17T04:45:10.648Z,9.43
2023-11-17T04:50:14.322Z,9.48
2023-11-17T04:55:17.842Z,9.51
2023-11-17T05:00:21.604Z,9.49
2023-11-17T05:05:25.041Z,9.47
2023-11-17T05:10:28.484Z,9.42
2023-11-17T05:15:33.578Z,9.38
2023-11-17T05:20:38.671Z,9.39
2023-11-17T05:25:41.899Z,9.41
2023-11-17T05:30:45.110Z,9.47
2023-11-17T05:35:49.176Z,9.51
2023-11-17T05:40:53.391Z,9.53
2023-11-17T05:51:10.782Z,9.51
2023-11-17T05:56:14.040Z,9.59
2023-11-17T06:01:17.843Z,9.62
2023-11-17T06:06:21.028Z,9.60
2023-11-17T06:11:26.952Z,9.60
2023-11-17T06:16:30.543Z,9.69
2023-11-17T06:21:33.866Z,9.71
2023-11-17T06:26:37.084Z,9.70
2023-11-17T06:31:44.745Z,9.65
2023-11-17T06:36:48.263Z,9.64
2023-11-17T06:41:53.082Z,9.62
2023-11-17T06:46:57.622Z,9.65
2023-11-17T06:52:03.227Z,9.75
2023-11-17T06:57:08.352Z,9.82
2023-11-17T07:02:11.611Z,9.80
2023-11-17T07:07:15.846Z,9.79
2023-11-17T07:12:19.101Z,9.76
2023-11-17T07:17:22.516Z,9.72
2023-11-17T07:22:26.344Z,9.68
2023-11-17T07:27:29.851Z,9.71
2023-11-17T07:32:33.071Z,9.76
2023-11-17T07:37:36.368Z,9.82
2023-11-17T07:42:41.077Z,9.82
2023-11-17T07:47:44.847Z,9.81
2023-11-17T07:52:48.013Z,9.81
2023-11-17T07:57:51.544Z,9.82
2023-11-17T08:02:57.545Z,9.86
2023-11-17T08:08:02.023Z,9.88
2023-11-17T08:13:05.842Z,9.88
2023-11-17T08:18:10.717Z,9.92
2023-11-17T08:23:14.504Z,9.98
2023-11-17T08:28:18.202Z,9.95
2023-11-17T08:33:21.595Z,9.92
2023-11-17T08:38:26.759Z,9.94
2023-11-17T08:43:30.250Z,10.00
2023-11-17T08:48:37.262Z,10.07
2023-11-17T08:53:40.342Z,10.16
2023-11-17T08:58:43.871Z,10.21
2023-11-17T09:03:48.517Z,10.17
2023-11-17T09:08:52.064Z,10.14
2023-11-17T09:13:55.159Z,10.26
2023-11-17T09:19:00.883Z,10.32
2023-11-17T09:24:04.507Z,10.31
2023-11-17T09:29:08.805Z,10.35
2023-11-17T09:34:12.063Z,10.36
2023-11-17T09:39:17.037Z,10.31
2023-11-17T09:44:20.716Z,10.24
2023-11-17T09:49:29.887Z,10.16
2023-11-17T09:54:34.568Z,10.16
2023-11-17T09:59:44.177Z,10.21
2023-11-17T10:04:47.405Z,11.07
2023-11-17T10:09:51.092Z,12.54
2023-11-17T10:14:55.122Z,13.23
2023-11-17T10:19:59.620Z,13.53
2023-11-17T10:25:03.626Z,13.00
2023-11-17T10:30:09.107Z,12.23
2023-11-17T10:35:18.408Z,11.64
2023-11-17T10:40:33.248Z,11.21
2023-11-17T10:45:48.559Z,10.88
2023-11-17T10:50:53.437Z,10.62
2023-11-17T10:55:59.111Z,10.48
2023-11-17T11:01:04.975Z,10.42
2023-11-17T11:06:09.619Z,10.33
2023-11-17T11:11:22.058Z,10.28
2023-11-17T11:16:26.114Z,10.14
2023-11-17T11:21:35.069Z,10.14
2023-11-17T11:26:39.527Z,10.12
2023-11-17T11:31:42.776Z,10.03
2023-11-17T11:36:49.019Z,10.06
2023-11-17T11:41:52.406Z,10.00
2023-11-17T11:46:59.108Z,9.96
2023-11-17T11:52:14.689Z,9.93
2023-11-17T11:57:30.044Z,9.86
2023-11-17T12:02:35.084Z,9.75
2023-11-17T12:07:39.332Z,9.75
2023-11-17T12:12:45.523Z,9.81
2023-11-17T12:17:54.510Z,9.86
2023-11-17T12:23:06.922Z,9.84
2023-11-17T12:28:11.059Z,9.83
2023-11-17T12:33:15.653Z,9.76
2023-11-17T12:38:18.858Z,9.64
2023-11-17T12:43:22.894Z,9.61
2023-11-17T12:48:26.109Z,9.58
2023-11-17T12:53:50.804Z,9.52
2023-11-17T12:58:55.931Z,9.52
2023-11-17T13:04:01.127Z,9.57
2023-11-17T13:09:11.208Z,9.62
2023-11-17T13:14:25.726Z,9.63
2023-11-17T13:19:30.584Z,9.67
2023-11-17T13:24:34.022Z,9.61
2023-11-17T13:29:41.730Z,9.57
2023-11-17T13:34:55.222Z,9.43
2023-11-17T13:40:00.372Z,9.29
2023-11-17T13:45:05.027Z,9.23
2023-11-17T13:50:16.506Z,9.21
2023-11-17T13:55:21.248Z,9.24
2023-11-17T14:00:27.593Z,9.27
2023-11-17T14:05:31.046Z,9.28
2023-11-17T14:10:34.957Z,9.23
2023-11-17T14:15:47.815Z,9.18
2023-11-17T14:20:56.663Z,9.14
2023-11-17T14:25:59.900Z,9.06
2023-11-17T14:31:09.562Z,8.85
2023-11-17T14:36:12.926Z,8.56
2023-11-17T14:41:17.824Z,8.42
2023-11-17T14:46:25.076Z,8.33
2023-11-17T14:51:31.337Z,8.21
2023-11-17T14:56:35.538Z,8.07
2023-11-17T15:01:44.031Z,7.94
2023-11-17T15:06:55.685Z,7.78
2023-11-17T15:11:59.153Z,7.65
2023-11-17T15:17:02.302Z,7.53
2023-11-17T15:22:06.601Z,7.44
2023-11-17T15:27:09.715Z,7.33
2023-11-17T15:32:12.927Z,7.33
2023-11-17T15:37:16.133Z,7.32
2023-11-17T15:42:19.496Z,7.35
2023-11-17T15:47:22.987Z,7.36
2023-11-17T15:52:26.126Z,7.37
2023-11-17T15:57:29.184Z,7.32
2023-11-17T16:02:33.238Z,7.12
2023-11-17T16:07:36.488Z,7.05
2023-11-17T16:12:40.495Z,7.06
2023-11-17T16:17:43.586Z,6.92
2023-11-17T16:22:47.684Z,6.82
2023-11-17T16:27:52.589Z,6.80
2023-11-17T16:32:56.737Z,6.73
2023-11-17T16:38:00.462Z,6.58
2023-11-17T16:43:12.144Z,6.51
2023-11-17T16:48:15.899Z,6.42
2023-11-17T16:53:20.806Z,6.38
2023-11-17T16:58:24.928Z,6.29
2023-11-17T17:03:28.462Z,6.27
2023-11-17T17:08:32.481Z,6.28
2023-11-17T17:13:37.010Z,6.20
2023-11-17T17:18:41.241Z,6.21
2023-11-17T17:23:44.323Z,6.27
2023-11-17T17:28:47.445Z,6.31
2023-11-17T17:33:50.645Z,6.32
2023-11-17T17:38:53.769Z,6.18
2023-11-17T17:43:57.101Z,6.14
2023-11-17T17:49:01.253Z,6.11
2023-11-17T17:54:06.430Z,6.11
2023-11-17T17:59:09.502Z,6.06
2023-11-17T18:04:13.485Z,6.04
2023-11-17T18:09:16.998Z,5.99
2023-11-17T18:14:20.325Z,5.96
2023-11-17T18:19:23.547Z,6.03
2023-11-17T18:24:26.632Z,6.10
2023-11-17T18:29:29.870Z,6.12
2023-11-17T18:34:33.094Z,6.19
2023-11-17T18:39:38.322Z,6.25
2023-11-17T18:44:41.459Z,6.36
2023-11-17T18:49:46.170Z,6.30
2023-11-17T18:54:50.308Z,6.21
2023-11-17T18:59:53.503Z,6.20
2023-11-17T19:04:56.780Z,6.09
2023-11-17T19:10:00.285Z,6.04
2023-11-17T19:15:07.894Z,6.04
2023-11-17T19:20:16.663Z,6.10
2023-11-17T19:25:19.896Z,6.11
2023-11-17T19:30:23.072Z,6.19
2023-11-17T19:35:26.128Z,6.14
2023-11-17T19:40:29.328Z,6.21
2023-11-17T19:45:32.718Z,6.18
2023-11-17T19:50:36.058Z,6.13
2023-11-17T19:55:39.279Z,6.06
2023-11-17T20:00:44.195Z,5.94
2023-11-17T20:05:47.673Z,5.93
2023-11-17T20:10:51.186Z,6.09
2023-11-17T20:15:55.530Z,6.27
2023-11-17T20:21:00.886Z,6.27
2023-11-17T20:26:08.926Z,6.16
2023-11-17T20:31:14.566Z,6.04
2023-11-17T20:36:21.714Z,5.96
2023-11-17T20:41:25.555Z,5.93
2023-11-17T20:46:29.298Z,5.90
2023-11-17T20:51:33.019Z,5.90
2023-11-17T20:56:36.459Z,5.89
2023-11-17T21:01:47.970Z,5.86
2023-11-17T21:06:52.996Z,5.91
2023-11-17T21:11:56.317Z,6.10
2023-11-17T21:16:59.342Z,6.23
2023-11-17T21:22:02.819Z,6.28
2023-11-17T21:27:08.192Z,6.28
2023-11-17T21:32:12.589Z,6.32
2023-11-17T21:37:15.751Z,6.32
2023-11-17T21:42:19.337Z,6.33
2023-11-17T21:47:22.545Z,6.28
2023-11-17T21:52:25.793Z,6.30
2023-11-17T21:57:28.952Z,6.29
2023-11-17T22:02:32.065Z,6.21
2023-11-17T22:07:35.341Z,6.18
2023-11-17T22:12:42.781Z,6.12
2023-11-17T22:17:46.485Z,6.10
2023-11-17T22:22:51.990Z,6.16
2023-11-17T22:27:56.563Z,6.27
2023-11-17T22:32:59.916Z,6.35
2023-11-17T22:38:03.387Z,6.34
2023-11-17T22:43:06.714Z,6.31
2023-11-17T22:48:09.881Z,6.33
2023-11-17T22:53:13.216Z,6.30
2023-11-17T22:58:16.350Z,6.30
2023-11-17T23:03:19.598Z,6.32
2023-11-17T23:08:22.830Z,6.31
2023-11-17T23:13:26.551Z,6.31
2023-11-17T23:18:30.280Z,6.31
2023-11-17T23:23:33.471Z,6.30
2023-11-17T23:28:36.843Z,6.31
2023-11-17T23:33:40.074Z,6.29
2023-11-17T23:38:43.168Z,6.27
2023-11-17T23:43:47.905Z,6.28
2023-11-17T23:48:51.093Z,6.26
2023-11-17T23:53:56.409Z,6.25
2023-11-17T23:59:02.486Z,6.27
